Latest Coastal Weather Observations for Yeppoon

IDQ60701

Issued at 2:51 pm EST Monday 27 February 2017 (issued every 10 minutes, with the page automatically refreshed every 10 minutes)

About coastal observations | Map of coastal stations | Coastal observations for QLD | Marine services | Other Formats
Station Details ID: 033294 Name: YEPPOON THE ESPLANADE Lat: -23.14 Lon: 150.75 Height: 5.5 m
Data from the previous 72 hours. | See also: Recent months at Yeppoon
Date/Time
EST
Temp
°C
Wind Pressure Rain since
9am
mm
Weather Cloud Vis
km
Sea
Height
m
Swell
Dir  Spd
kts
Gust
kts
hPa Trend Height
m
Period
s
Dir
27/02:30pm 28.7 E 14 18 1012.4 - 0.0 - - - - - - -
27/02:00pm 28.8 E 14 16 1012.7 - 0.0 - - - - - - -
27/01:30pm 28.8 ESE 15 17 1013.2 - 0.0 - - - - - - -
27/01:00pm 28.8 ESE 14 19 1013.7 - 0.0 - - - - - - -
27/12:30pm 28.6 ESE 12 17 1014.0 - 0.0 - - - - - - -
27/12:00pm 28.6 ESE 11 16 1014.5 - 0.0 - - - - - - -
27/11:30am 28.4 ESE 13 18 1014.7 - 0.0 - - - - - - -
27/11:00am 28.4 ESE 11 15 1015.0 - 0.0 - - - - - - -
27/10:30am 28.1 ESE 11 15 1015.0 - 0.0 - - - - - - -
27/10:00am 26.1 ESE 8 10 1015.3 - 0.0 - - - - - - -
27/09:30am 26.5 ESE 10 12 1015.1 - 0.0 - - - - - - -
27/09:00am 25.2 E 14 17 1015.2 - 1.0 - - - - - - -
27/08:30am 25.7 SE 11 17 1014.9 - 1.0 - - - - - - -
27/08:00am 24.3 S 4 5 1014.7 - 1.0 - - - - - - -
27/07:30am 23.3 S 7 10 1014.4 - 1.0 - - - - - - -
27/07:00am 22.9 SSW 9 13 1014.1 - 1.0 - - - - - - -
27/06:30am 22.7 SSW 9 13 1013.7 - 1.0 - - - - - - -
27/06:00am 22.6 SSW 8 11 1013.4 - 1.0 - - - - - - -
27/05:30am 22.6 SSW 8 11 1013.3 - 1.0 - - - - - - -
27/05:00am 22.6 SSW 6 8 1013.3 - 1.0 - - - - - - -
27/04:30am 22.6 SSW 6 9 1013.1 - 1.0 - - - - - - -
27/04:00am 22.9 S 5 7 1012.9 - 1.0 - - - - - - -
27/03:30am 24.4 E 7 12 1013.2 - 1.0 - - - - - - -
27/03:00am 23.2 SE 7 11 1013.5 - 0.8 Rain - - - - - -
27/02:30am 26.1 SE 12 19 1013.6 - 0.0 - - - - - - -
27/02:00am 27.0 ESE 14 18 1013.3 - 0.0 - - - - - - -
27/01:30am 27.0 ESE 15 19 1013.4 - 0.0 - - - - - - -
27/01:00am 27.0 ESE 11 17 1013.7 - 0.0 - - - - - - -
27/12:30am 27.1 ESE 15 19 1014.0 - 0.0 - - - - - - -
27/12:00am 27.3 ESE 17 22 1014.1 - 0.0 - - - - - - -
 
Date/Time
EST
Temp
°C
Wind Pressure Rain since
9am
mm
Weather Cloud Vis
km
Sea
Height
m
Swell
Dir  Spd
kts
Gust
kts
hPa Trend Height
m
Period
s
Dir
26/11:30pm 27.3 E 17 21 1014.4 - 0.0 - - - - - - -
26/11:00pm 27.3 E 18 23 1014.0 - 0.0 - - - - - - -
26/10:30pm 27.3 E 17 20 1013.8 - 0.0 - - - - - - -
26/10:00pm 27.5 E 19 23 1013.5 - 0.0 - - - - - - -
26/09:30pm 27.4 E 17 21 1013.8 - 0.0 - - - - - - -
26/09:00pm 27.5 E 17 22 1013.8 - 0.0 - - - - - - -
26/08:30pm 27.4 E 16 20 1013.8 - 0.0 - - - - - - -
26/08:00pm 27.6 E 16 20 1013.4 - 0.0 - - - - - - -
26/07:30pm 27.6 ESE 14 17 1013.2 - 0.0 - - - - - - -
26/07:00pm 27.6 E 17 20 1012.4 - 0.0 - - - - - - -
26/06:30pm 27.7 E 16 19 1012.1 - 0.0 - - - - - - -
26/06:00pm 27.7 E 16 18 1011.9 - 0.0 - - - - - - -
26/05:30pm 27.8 ENE 15 19 1011.3 - 0.0 - - - - - - -
26/05:00pm 27.8 ENE 15 18 1011.0 - 0.0 - - - - - - -
26/04:30pm 27.8 ENE 15 17 1011.1 - 0.0 - - - - - - -
26/04:00pm 28.2 ENE 14 17 1011.3 - 0.0 - - - - - - -
26/03:30pm 28.9 E 13 16 1011.4 - 0.0 - - - - - - -
26/03:00pm 29.1 E 14 17 1011.5 - 0.0 - - - - - - -
26/02:30pm 29.1 ESE 14 18 1011.8 - 0.0 - - - - - - -
26/02:00pm 28.9 ESE 15 19 1012.0 - 0.0 - - - - - - -
26/01:30pm 29.9 ESE 13 18 1012.2 - 0.0 - - - - - - -
26/01:00pm 29.1 ESE 15 19 1012.4 - 0.0 - - - - - - -
26/12:30pm 29.3 ESE 12 18 1012.9 - 0.0 - - - - - - -
26/12:00pm 29.0 ESE 14 17 1013.0 - 0.0 - - - - - - -
26/11:30am 28.3 ESE 11 15 1013.3 - 0.0 - - - - - - -
26/11:00am 28.6 ESE 11 14 1013.5 - 0.0 - - - - - - -
26/10:30am 28.3 SE 11 17 1013.8 - 0.0 - - - - - - -
26/10:00am 27.8 SE 10 15 1013.8 - 0.0 - - - - - - -
26/09:30am 27.6 ESE 10 14 1013.8 - 0.0 - - - - - - -
26/09:00am 27.4 SE 11 16 1013.9 - 0.0 - - - - - - -
26/08:30am 27.0 SSE 12 17 1014.0 - 0.0 - - - - - - -
26/08:00am 26.8 SSE 11 15 1013.6 - 0.0 - - - - - - -
26/07:30am 26.2 SSE 11 17 1013.5 - 0.0 - - - - - - -
26/07:00am 26.1 SE 8 12 1013.1 - 0.0 - - - - - - -
26/06:30am 25.3 SSE 5 7 1012.8 - 0.0 - - - - - - -
26/06:00am 25.0 SSE 7 10 1012.4 - 0.0 - - - - - - -
26/05:30am 26.2 ESE 13 20 1011.9 - 0.0 - - - - - - -
26/05:00am 26.4 ESE 13 20 1011.7 - 0.0 - - - - - - -
26/04:30am 26.4 ESE 13 18 1011.6 - 0.0 - - - - - - -
26/04:00am 26.4 E 15 21 1011.5 - 0.0 - - - - - - -
26/03:30am 26.4 E 15 21 1011.5 - 0.0 - - - - - - -
26/03:00am 26.4 ESE 15 20 1011.5 - 0.0 - - - - - - -
26/02:30am 26.5 ESE 14 18 1011.5 - 0.0 - - - - - - -
26/02:00am 26.7 ESE 13 18 1011.7 - 0.0 - - - - - - -
26/01:30am 26.7 E 14 19 1011.8 - 0.0 - - - - - - -
26/01:00am 26.9 E 15 21 1012.2 - 0.0 - - - - - - -
26/12:30am 26.9 ESE 15 20 1012.7 - 0.0 - - - - - - -
26/12:00am 27.0 ESE 13 17 1013.0 - 0.0 - - - - - - -
 
Date/Time
EST
Temp
°C
Wind Pressure Rain since
9am
mm
Weather Cloud Vis
km
Sea
Height
m
Swell
Dir  Spd
kts
Gust
kts
hPa Trend Height
m
Period
s
Dir
25/11:30pm 27.2 ESE 15 20 1013.2 - 0.0 - - - - - - -
25/11:00pm 27.1 E 16 21 1013.5 - 0.0 - - - - - - -
25/10:30pm 27.3 E 17 21 1013.4 - 0.0 - - - - - - -
25/10:00pm 27.3 E 15 19 1013.5 - 0.0 - - - - - - -
25/09:30pm 27.4 E 17 20 1013.4 - 0.0 - - - - - - -
25/09:00pm 27.3 E 16 20 1013.1 - 0.0 - - - - - - -
25/08:30pm 27.4 E 16 19 1012.9 - 0.0 - - - - - - -
25/08:00pm 27.6 E 15 18 1012.7 - 0.0 - - - - - - -
25/07:30pm 27.6 E 16 19 1012.6 - 0.0 - - - - - - -
25/07:00pm 27.4 E 15 19 1012.3 - 0.0 - - - - - - -
25/06:30pm 27.7 E 15 18 1012.0 - 0.0 - - - - - - -
25/06:00pm 27.5 ENE 15 17 1011.7 - 0.0 - - - - - - -
25/05:30pm 27.8 E 16 19 1011.5 - 0.0 - - - - - - -
25/05:00pm 28.1 E 15 18 1011.3 - 0.0 - - - - - - -
25/04:30pm 28.0 E 14 17 1011.1 - 0.0 - - - - - - -
25/04:00pm 28.1 ENE 14 17 1011.2 - 0.0 - - - - - - -
25/03:30pm 29.2 E 13 16 1011.2 - 0.0 - - - - - - -
25/03:00pm 29.0 ESE 14 18 1011.5 - 0.0 - - - - - - -
25/02:30pm 29.3 ESE 14 18 1011.9 - 0.0 - - - - - - -
25/02:00pm 29.1 ESE 14 18 1012.3 - 0.0 - - - - - - -
25/01:30pm 29.0 E 14 18 1012.8 - 0.0 - - - - - - -
25/01:00pm 29.6 ESE 13 18 1013.1 - 0.0 - - - - - - -
25/12:30pm 29.0 ESE 14 19 1013.4 - 0.0 - - - - - - -
25/12:00pm 29.1 ESE 13 19 1013.7 - 0.0 - - - - - - -
25/11:30am 28.7 ESE 13 17 1014.2 - 0.0 - - - - - - -
25/11:00am 28.7 ESE 14 18 1014.4 - 0.0 - - - - - - -
25/10:30am 28.6 SE 11 18 1014.5 - 0.0 - - - - - - -
25/10:00am 28.2 ESE 12 17 1014.6 - 0.0 - - - - - - -
25/09:30am 27.6 SSE 11 17 1014.8 - 0.0 - - - - - - -
25/09:00am 27.8 SE 10 15 1014.7 - 0.0 - - - - - - -
25/08:30am 26.9 SSE 11 19 1014.7 - 0.0 - - - - - - -
25/08:00am 25.8 S 9 14 1014.5 - 0.0 - - - - - - -
25/07:30am 25.1 S 7 13 1014.3 - 0.0 - - - - - - -
25/07:00am 24.4 SSW 9 13 1014.0 - 0.0 - - - - - - -
25/06:30am 24.2 SSW 7 9 1013.6 - 0.0 - - - - - - -
25/06:00am 24.2 S 8 10 1013.4 - 0.0 - - - - - - -
25/05:30am 24.6 SSW 8 11 1013.2 - 0.0 - - - - - - -
25/05:00am 26.1 SE 9 13 1013.0 - 0.0 - - - - - - -
25/04:30am 26.8 ESE 8 11 1013.0 - 0.0 - - - - - - -
25/04:00am 26.8 ESE 11 15 1012.9 - 0.0 - - - - - - -
25/03:30am 26.8 E 13 17 1012.8 - 0.0 - - - - - - -
25/03:00am 26.9 ESE 11 15 1012.9 - 0.0 - - - - - - -
25/02:30am 26.8 ESE 11 15 1013.0 - 0.0 - - - - - - -
25/02:00am 27.0 E 12 15 1013.0 - 0.0 - - - - - - -
25/01:30am 27.1 E 12 15 1013.2 - 0.0 - - - - - - -
25/01:00am 27.3 E 15 18 1013.4 - 0.0 - - - - - - -
25/12:30am 27.1 ESE 12 17 1013.6 - 0.0 - - - - - - -
25/12:00am 27.4 ESE 13 17 1013.9 - 0.0 - - - - - - -
 
Date/Time
EST
Temp
°C
Wind Pressure Rain since
9am
mm
Weather Cloud Vis
km
Sea
Height
m
Swell
Dir  Spd
kts
Gust
kts
hPa Trend Height
m
Period
s
Dir
24/11:30pm 27.4 E 14 18 1014.0 - 0.0 - - - - - - -
24/11:00pm 27.5 E 14 18 1014.4 - 0.0 - - - - - - -
24/10:30pm 27.6 ESE 15 19 1014.7 - 0.0 - - - - - - -
24/10:00pm 27.6 E 15 20 1014.7 - 0.0 - - - - - - -
24/09:30pm 27.8 E 16 19 1014.8 - 0.0 - - - - - - -
24/09:00pm 27.8 E 16 20 1014.7 - 0.0 - - - - - - -
24/08:30pm 27.8 E 16 19 1014.5 - 0.0 - - - - - - -
24/08:00pm 27.9 ENE 15 18 1014.3 - 0.0 - - - - - - -
24/07:30pm 27.9 ENE 15 19 1014.1 - 0.0 - - - - - - -
24/07:00pm 27.7 ENE 16 19 1013.8 - 0.0 - - - - - - -
24/06:30pm 27.9 ENE 16 19 1013.7 - 0.0 - - - - - - -
24/06:00pm 28.1 ENE 15 18 1013.4 - 0.0 - - - - - - -
24/05:30pm 28.2 ENE 15 19 1013.2 - 0.0 - - - - - - -
24/05:00pm 28.3 E 16 19 1013.0 - 0.0 - - - - - - -
24/04:30pm 28.4 E 15 17 1013.0 - 0.0 - - - - - - -
24/04:00pm 28.5 ENE 15 19 1013.2 - 0.0 - - - - - - -
24/03:30pm 29.2 E 14 16 1013.2 - 0.0 - - - - - - -
24/03:00pm 29.3 E 13 17 1013.5 - 0.0 - - - - - - -

Other Formats:

Comma delimited format used in spreadsheet applications
http://www.bom.gov.au/fwo/IDQ60701/IDQ60701.94373.axf

JavaScript Object Notation format (JSON) in row-major order
http://www.bom.gov.au/fwo/IDQ60701/IDQ60701.94373.json